Weather reports worldwide

Advertisment
Ross-on-Wye, United Kingdom (99207): temperature & dewpoint: 12.09.2019 04:00:00 - 18.09.2019 04:00:00 (BST)Ross-on-Wye, United Kingdom (99207): temperature -20cm: 12.09.2019 04:00:00 - 18.09.2019 04:00:00 (BST)Ross-on-Wye, United Kingdom (99207): wind speed & gusts: 12.09.2019 04:00:00 - 18.09.2019 04:00:00 (BST)Ross-on-Wye, United Kingdom (99207): wind direction: 12.09.2019 04:00:00 - 18.09.2019 04:00:00 (BST)Ross-on-Wye, United Kingdom (99207): sunshine duration: 12.09.2019 04:00:00 - 18.09.2019 04:00:00 (BST)Ross-on-Wye, United Kingdom (99207): precipitation: 12.09.2019 04:00:00 - 18.09.2019 04:00:00 (BST)
Date & Time tt [°C] td [°C] tt -20cm [°C] ff [km/h] ff [kn] fx [km/h] fx [kn] dd sd [min] rr [mm]
18.09.2019 04:00:00 6,4 5,6 - 0 0 - - N 0 0,0
18.09.2019 03:00:00 7,6 6,7 - 2 1 - - ESE 0 0,0
18.09.2019 02:00:00 8,3 7,3 - 4 2 - - ESE 0 0,0
18.09.2019 01:00:00 8,7 7,2 - 4 2 - - SW - 0,0
18.09.2019 00:00:00 10,2 7,5 - 4 2 - - N 0 0,0
17.09.2019 23:00:00 10,7 7,8 - 4 2 - - NW 0 0,0
17.09.2019 22:00:00 11,5 8,0 - 4 2 - - NE 0 0,0
17.09.2019 21:00:00 12,5 7,3 - 2 1 - - W 0 0,0
17.09.2019 20:00:00 14,3 7,3 - 8 4 - - NNE 6 0,0
17.09.2019 19:00:00 16,2 6,7 - 9 5 - - NNE 60 0,0
17.09.2019 18:00:00 17,4 7,0 - 13 7 - - NNE 60 0,0
17.09.2019 17:00:00 17,9 7,6 - 13 7 - - N 60 0,0
17.09.2019 16:00:00 17,8 7,2 - 13 7 - - N 54 0,0
17.09.2019 15:00:00 17,8 8,1 - 13 7 - - NNE 42 0,0
17.09.2019 14:00:00 16,9 8,4 - 13 7 - - NNE 18 0,0
17.09.2019 13:00:00 17,4 9,1 - 13 7 - - NNE 24 0,0
17.09.2019 12:00:00 14,9 8,5 - 9 5 - - N 12 0,0
17.09.2019 11:00:00 15,1 8,3 - 11 6 - - N 54 0,0
17.09.2019 10:00:00 12,8 9,6 15,9 8 4 - - N 54 0,0
17.09.2019 09:00:00 8,7 8,5 - 2 1 - - NNW 36 0,0
17.09.2019 08:00:00 7,1 6,8 - 2 1 - - WSW 24 0,0
17.09.2019 07:00:00 6,5 6,0 - 2 1 - - SSW 0 0,0
17.09.2019 06:00:00 7,3 6,9 - 4 2 - - SSW 0 0,0
17.09.2019 05:00:00 7,2 6,5 - 2 1 - - NNW 0 0,0
17.09.2019 04:00:00 8,3 7,6 - 2 1 - - N 0 0,0
17.09.2019 03:00:00 8,4 7,0 - 2 1 - - W 0 0,0
17.09.2019 02:00:00 9,8 7,7 - 4 2 - - N 0 0,0
17.09.2019 01:00:00 11,3 7,8 - 8 4 - - N - 0,0
17.09.2019 00:00:00 13,0 8,4 - 9 5 - - NNE 0 0,0
16.09.2019 23:00:00 13,7 9,4 - 9 5 - - NNE 0 0,0
16.09.2019 22:00:00 14,2 10,4 - 5 3 - - NE 0 0,0
16.09.2019 21:00:00 15,2 11,9 - 9 5 - - NNE 0 0,0
16.09.2019 20:00:00 15,5 12,6 - 8 4 - - NE 0 0,0
16.09.2019 19:00:00 16,0 13,1 - 9 5 - - NNE 0 0,0
16.09.2019 18:00:00 16,8 14,1 - 8 4 - - NE 0 0,0
16.09.2019 17:00:00 16,9 14,7 - 8 4 - - NE 0 0,0
16.09.2019 16:00:00 16,6 15,0 - 9 5 - - NNE 0 0,2
16.09.2019 15:00:00 17,5 15,9 - 9 5 - - NE 0 0,0
16.09.2019 14:00:00 17,9 15,8 - 5 3 - - N 0 0,0
16.09.2019 13:00:00 18,9 14,5 - 4 2 - - WNW 0 0,0
16.09.2019 12:00:00 18,6 14,8 - 5 3 - - WSW 0 0,0
16.09.2019 11:00:00 18,1 15,0 - 5 3 - - W 0 0,0
16.09.2019 10:00:00 17,1 14,7 17,0 5 3 - - WSW 0 0,0
16.09.2019 09:00:00 16,5 14,5 - 5 3 - - SW 0 0,0
16.09.2019 08:00:00 16,0 14,1 - 4 2 - - SSW 0 0,0
16.09.2019 07:00:00 15,7 13,9 - 8 4 - - SW 0 0,0
16.09.2019 06:00:00 15,5 13,8 - 4 2 - - WSW 0 0,0
16.09.2019 05:00:00 15,5 13,8 - 8 4 - - SW 0 0,0
16.09.2019 04:00:00 15,4 13,8 - 8 4 - - SW 0 0,0
16.09.2019 03:00:00 15,3 13,9 - 5 3 - - SW 0 0,0
16.09.2019 02:00:00 15,5 13,9 - 5 3 - - SW 0 0,0
16.09.2019 01:00:00 16,0 14,2 - 9 5 - - SW - 0,0
16.09.2019 00:00:00 16,5 14,1 - 9 5 - - SW 0 0,0
15.09.2019 23:00:00 16,9 14,2 - 9 5 - - SW 0 0,0
15.09.2019 22:00:00 17,8 14,4 - 9 5 - - SW 0 0,0
15.09.2019 21:00:00 18,2 14,4 - 5 3 - - WSW 0 0,0
15.09.2019 20:00:00 18,5 14,2 - 5 3 - - SW 0 0,0
15.09.2019 19:00:00 19,6 14,1 - 5 3 - - WNW 6 0,0
15.09.2019 18:00:00 20,4 14,3 - 5 3 - - NW 6 0,0
15.09.2019 17:00:00 22,0 15,2 - 8 4 - - WNW 30 0,0
15.09.2019 16:00:00 22,7 14,7 - 5 3 - - NNW 54 0,0
15.09.2019 15:00:00 21,8 14,6 - 9 5 - - WNW 36 0,0
15.09.2019 14:00:00 21,1 15,1 - 4 2 - - NW 0 0,0
15.09.2019 13:00:00 20,0 13,9 - 9 5 - - WSW 6 0,0
15.09.2019 12:00:00 19,9 13,5 - 5 3 - - SSW 12 0,0
15.09.2019 11:00:00 17,1 11,5 - 8 4 - - SW 0 0,0
15.09.2019 10:00:00 15,2 10,6 16,0 5 3 - - SW 0 0,0
15.09.2019 09:00:00 11,9 9,9 - 2 1 - - W 30 0,0
15.09.2019 08:00:00 8,7 8,0 - 4 2 - - WNW 24 0,0
15.09.2019 07:00:00 8,4 7,7 - 4 2 - - WSW 0 0,0
15.09.2019 06:00:00 8,6 7,7 - 4 2 - - WSW 0 0,0
15.09.2019 05:00:00 8,9 7,5 - 2 1 - - WNW 0 0,0
15.09.2019 04:00:00 9,4 7,8 - 4 2 - - N 0 0,0
15.09.2019 03:00:00 11,1 9,3 - 5 3 - - SW 0 0,0
15.09.2019 02:00:00 10,7 8,0 - 4 2 - - WNW 0 0,0
15.09.2019 01:00:00 12,3 8,8 - 9 5 - - SW - 0,0
15.09.2019 00:00:00 11,5 8,3 - 2 1 - - WNW 0 0,0
14.09.2019 23:00:00 12,2 8,2 - 2 1 - - W 0 0,0
14.09.2019 22:00:00 13,4 8,2 - 4 2 - - WSW 0 0,0
14.09.2019 21:00:00 15,2 8,0 - 5 3 - - WSW 0 0,0
14.09.2019 20:00:00 17,1 7,8 - 5 3 - - SSW 12 0,0
14.09.2019 19:00:00 19,5 8,1 - 8 4 - - SW 60 0,0
14.09.2019 18:00:00 20,5 7,5 - 11 6 - - SW 60 0,0
14.09.2019 17:00:00 20,8 7,4 - 11 6 - - SSW 48 0,0
14.09.2019 16:00:00 21,2 6,9 - 11 6 - - WSW 60 0,0
14.09.2019 15:00:00 22,0 10,3 - 8 4 - - SSW 60 0,0
14.09.2019 14:00:00 20,2 8,6 - 8 4 - - WSW 60 0,0
14.09.2019 13:00:00 19,8 9,4 - 5 3 - - S 60 0,0
14.09.2019 12:00:00 18,4 9,0 - 5 3 - - SW 60 0,0
14.09.2019 11:00:00 16,5 10,1 - 5 3 - - SSW 60 0,0
14.09.2019 10:00:00 13,3 10,0 16,2 2 1 - - W 48 0,0
14.09.2019 09:00:00 9,4 8,5 - 2 1 - - ESE 36 0,0
14.09.2019 08:00:00 7,3 7,0 - 2 1 - - ENE 18 0,0
14.09.2019 07:00:00 6,9 6,5 - 0 0 - - N 0 0,0
14.09.2019 06:00:00 6,7 6,4 - 0 0 - - N 0 0,0
14.09.2019 05:00:00 6,1 5,4 - 0 0 - - N 0 0,0
14.09.2019 04:00:00 6,9 6,2 - 2 1 - - WSW 0 0,0
14.09.2019 03:00:00 7,4 6,4 - 2 1 - - N 0 0,0
14.09.2019 02:00:00 8,6 7,1 - 2 1 - - W 0 0,0
14.09.2019 01:00:00 8,8 7,3 - 2 1 - - NNW - 0,0
14.09.2019 00:00:00 10,3 7,7 - 0 0 - - N 0 0,0
13.09.2019 23:00:00 11,4 7,6 - 4 2 - - ENE 0 0,0
13.09.2019 22:00:00 12,2 8,1 - 2 1 - - ENE 0 0,0
13.09.2019 21:00:00 13,5 7,9 - 4 2 - - ENE 0 0,0
13.09.2019 20:00:00 15,1 7,5 - 4 2 - - E 18 0,0
13.09.2019 19:00:00 17,9 6,5 - 9 5 - - NNE 60 0,0
13.09.2019 18:00:00 19,1 7,2 - 9 5 - - NE 60 0,0
13.09.2019 17:00:00 20,1 6,9 - 9 5 - - NE 60 0,0
13.09.2019 16:00:00 20,2 8,1 - 8 4 - - NE 60 0,0
13.09.2019 15:00:00 19,7 7,5 - 11 6 - - NE 60 0,0
13.09.2019 14:00:00 19,0 7,2 - 11 6 - - ENE 60 0,0
13.09.2019 13:00:00 18,5 7,3 - 11 6 - - NE 60 0,0
13.09.2019 12:00:00 17,3 7,8 - 11 6 - - NE 60 0,0
13.09.2019 11:00:00 16,0 9,4 - 9 5 - - NNE 54 0,0
13.09.2019 10:00:00 14,5 10,0 16,7 8 4 - - N 48 0,0
13.09.2019 09:00:00 11,8 9,9 - 8 4 - - N 42 0,0
13.09.2019 08:00:00 9,8 9,3 - 2 1 - - WSW 30 0,0
13.09.2019 07:00:00 9,1 8,3 - 2 1 - - WNW 0 0,0
13.09.2019 06:00:00 10,2 8,9 - 2 1 - - ENE 0 0,0
13.09.2019 05:00:00 11,2 9,1 - 4 2 - - N 0 0,0
13.09.2019 04:00:00 12,8 9,1 - 5 3 - - NNE 0 0,0
13.09.2019 03:00:00 14,3 9,9 - 8 4 - - N 0 0,0
13.09.2019 02:00:00 15,0 10,1 - 11 6 - - NNE 0 0,0
13.09.2019 01:00:00 15,6 11,8 - 11 6 - - N - 0,0
13.09.2019 00:00:00 17,4 15,5 - 4 2 - - W 0 0,0
12.09.2019 23:00:00 17,7 15,7 - 8 4 - - W 0 0,0
12.09.2019 22:00:00 17,8 15,5 - 11 6 - - SW 0 0,0
12.09.2019 21:00:00 17,7 15,4 - 15 8 - - SW 0 0,0
12.09.2019 20:00:00 17,8 15,2 - 16 9 - - SW 0 0,0
12.09.2019 19:00:00 18,1 14,9 - 18 10 - - SW 0 0,0
12.09.2019 18:00:00 18,5 14,1 - 18 10 - - SW 0 0,0
12.09.2019 17:00:00 19,5 12,6 - 24 13 - - SW 24 0,0
12.09.2019 16:00:00 20,0 13,8 - 21 11 - - SW 30 0,0
12.09.2019 15:00:00 19,8 13,5 - 24 13 48 26 SW 42 0,0
12.09.2019 14:00:00 19,7 13,9 - 26 14 46 25 SW 24 0,0
12.09.2019 13:00:00 19,9 15,4 - 26 14 - - SW 36 0,0
12.09.2019 12:00:00 19,4 15,4 - 22 12 - - SW 24 0,0
12.09.2019 11:00:00 19,7 15,5 - 18 10 - - SW 12 0,0
12.09.2019 10:00:00 19,0 15,9 16,7 16 9 - - SW 12 0,0
12.09.2019 09:00:00 17,3 15,2 - 11 6 - - SW 12 0,0
12.09.2019 08:00:00 15,2 13,3 - 9 5 - - SW 12 0,0
12.09.2019 07:00:00 14,8 12,8 - 8 4 - - SSW 0 0,0
12.09.2019 06:00:00 14,9 12,4 - 8 4 - - S 0 0,0
12.09.2019 05:00:00 14,4 12,1 - 8 4 - - SSW 0 0,0
12.09.2019 04:00:00 13,8 12,0 - 9 5 - - SSW 0 0,0

tt = temperature
td = dewpoint
tt -20cm = temperature -20cm
ff = wind speed
fx = gusts
dd = wind direction
sd = sunshine duration
rr = precipitation

Next stations